Time;durP1;ratioP1;P1;durP2;ratioP2;P2;SDS_P1;SDS_P2;PMS_P1;PMS_P2;Temp;Humidity;BMP_temperature;BMP_pressure;BME280_temperature;BME280_humidity;BME280_pressure;Samples;Min_cycle;Max_cycle;Signal;HPM_P1;HPM_P2
2022/08/04 00:01:44;;;;;;;7.10;3.42;;;;;;;24.04;64.75;101000.25;3596434;39;20320;-62
2022/08/04 00:04:21;;;;;;;8.45;3.33;;;;;;;24.02;64.55;100998.72;3593164;39;20112;-63
2022/08/04 00:07:15;;;;;;;11.32;3.58;;;;;;;23.98;64.89;101000.97;3594455;39;20499;-63
2022/08/04 00:10:05;;;;;;;6.22;3.17;;;;;;;23.93;65.43;100995.13;3585408;39;20307;-63
2022/08/04 00:12:41;;;;;;;8.63;3.22;;;;;;;23.89;64.98;100988.31;3597172;39;20071;-62
2022/08/04 00:15:12;;;;;;;7.65;3.50;;;;;;;23.85;65.04;100992.44;3591652;39;20051;-62
2022/08/04 00:17:44;;;;;;;6.05;3.00;;;;;;;23.69;65.54;100971.41;3596578;39;20058;-62
2022/08/04 00:20:17;;;;;;;6.40;3.40;;;;;;;23.80;64.99;100976.50;3595780;39;20048;-62
2022/08/04 00:22:45;;;;;;;;;;;;;;;23.80;64.80;100973.75;3592426;39;20390;-63
2022/08/04 00:25:11;;;;;;;10.80;3.20;;;;;;;23.82;63.67;100971.69;3593705;39;19939;-63
2022/08/04 00:27:37;;;;;;;8.20;3.00;;;;;;;23.91;63.36;100971.63;3596750;39;20728;-62
2022/08/04 00:30:06;;;;;;;6.07;3.10;;;;;;;23.99;62.99;100979.84;3592269;39;20062;-63
2022/08/04 00:32:32;;;;;;;9.45;3.35;;;;;;;24.02;62.32;100982.25;3593353;39;20047;-63
2022/08/04 00:34:59;;;;;;;7.22;3.05;;;;;;;24.06;62.53;100969.84;3591152;39;20492;-62
2022/08/04 00:37:26;;;;;;;8.80;2.97;;;;;;;24.08;62.50;100970.53;3592827;39;20050;-63
2022/08/04 00:39:56;;;;;;;6.25;2.72;;;;;;;24.08;61.78;100965.03;3595761;39;20378;-62
2022/08/04 00:43:07;;;;;;;5.68;3.00;;;;;;;24.09;62.33;100969.50;3595385;39;20108;-63
2022/08/04 00:45:54;;;;;;;7.80;2.97;;;;;;;24.08;61.90;100960.41;3598113;39;20051;-62
2022/08/04 00:49:07;;;;;;;10.60;3.20;;;;;;;24.08;61.11;100967.78;3596828;39;20043;-63
2022/08/04 00:52:23;;;;;;;11.35;3.10;;;;;;;24.08;59.86;100965.03;3596359;39;20063;-62
2022/08/04 00:55:16;;;;;;;7.88;3.00;;;;;;;24.05;60.74;100959.91;3598188;39;20490;-62
2022/08/04 00:57:50;;;;;;;8.48;2.95;;;;;;;24.08;59.92;100954.91;3594269;39;20063;-63
2022/08/04 01:00:16;;;;;;;8.73;2.85;;;;;;;24.08;60.37;100954.91;3596403;39;20139;-63
2022/08/04 01:03:13;;;;;;;8.57;2.60;;;;;;;24.06;60.67;100962.47;3591700;39;20485;-63
2022/08/04 01:06:14;;;;;;;8.35;2.90;;;;;;;24.08;60.38;100962.28;3594930;39;20472;-63
2022/08/04 01:09:08;;;;;;;7.72;2.58;;;;;;;24.06;60.31;100953.38;3597087;39;20325;-62
2022/08/04 01:12:18;;;;;;;8.77;3.05;;;;;;;24.05;59.93;100957.16;3571525;39;20321;-63
2022/08/04 01:15:05;;;;;;;4.68;2.30;;;;;;;24.01;60.38;100948.44;3595985;39;20136;-63
2022/08/04 01:18:04;;;;;;;5.55;2.70;;;;;;;24.01;59.84;100942.09;3595054;39;20055;-62
2022/08/04 01:20:51;;;;;;;5.80;2.88;;;;;;;23.99;59.36;100944.16;3599612;39;20059;-63
2022/08/04 01:23:52;;;;;;;9.68;3.65;;;;;;;24.01;59.85;100948.44;3599753;39;20063;-63
2022/08/04 01:26:46;;;;;;;8.98;2.63;;;;;;;24.05;59.34;100943.44;3595475;39;20491;-62
2022/08/04 01:29:15;;;;;;;5.00;2.80;;;;;;;24.05;59.18;100944.28;3587244;39;20325;-63
2022/08/04 01:32:18;;;;;;;9.63;3.50;;;;;;;23.98;58.71;100917.72;3593835;39;20403;-63
2022/08/04 01:34:58;;;;;;;7.88;2.67;;;;;;;24.13;57.96;100939.75;3593521;39;20420;-63
2022/08/04 01:37:45;;;;;;;9.23;2.83;;;;;;;24.18;57.57;100934.59;3593903;39;20059;-62
2022/08/04 01:40:14;;;;;;;7.90;2.90;;;;;;;24.21;57.36;100934.25;3595530;39;20062;-62
2022/08/04 01:42:44;;;;;;;7.13;2.80;;;;;;;24.21;57.54;100929.59;3595607;39;20066;-62
2022/08/04 01:45:12;;;;;;;5.43;2.42;;;;;;;24.23;58.73;100930.28;3593176;39;20058;-63
2022/08/04 01:47:48;;;;;;;7.47;3.20;;;;;;;23.79;57.64;100854.00;3597410;39;20130;-62
2022/08/04 01:50:13;;;;;;;9.05;3.00;;;;;;;24.22;57.29;100928.53;3594285;39;20063;-63
2022/08/04 01:52:42;;;;;;;6.35;2.63;;;;;;;24.25;58.27;100928.19;3597383;39;20293;-62
2022/08/04 01:55:11;;;;;;;8.10;2.90;;;;;;;24.10;57.65;100908.03;3597202;39;20095;-62
2022/08/04 01:57:43;;;;;;;8.90;2.72;;;;;;;24.24;57.52;100925.63;3593772;39;20044;-63
2022/08/04 02:00:16;;;;;;;7.07;2.60;;;;;;;24.23;56.92;100924.78;3597233;39;20071;-63
2022/08/04 02:02:44;;;;;;;7.40;2.37;;;;;;;24.19;57.07;100906.09;3590776;39;20051;-62
2022/08/04 02:05:19;;;;;;;5.78;2.20;;;;;;;24.31;56.61;100924.72;3597844;39;20057;-62
2022/08/04 02:08:36;;;;;;;7.95;2.55;;;;;;;24.30;56.61;100920.25;3597723;39;20056;-63
2022/08/04 02:11:34;;;;;;;6.15;2.40;;;;;;;24.33;56.04;100914.41;3594594;39;20067;-62
2022/08/04 02:14:56;;;;;;;8.07;2.45;;;;;;;24.30;56.37;100914.78;3565235;39;20055;-63
2022/08/04 02:17:30;;;;;;;5.90;2.40;;;;;;;24.27;57.31;100909.63;3591815;39;20129;-63
2022/08/04 02:20:14;;;;;;;6.32;2.50;;;;;;;24.21;58.14;100907.63;3598079;39;20039;-62
2022/08/04 02:22:57;;;;;;;7.20;2.35;;;;;;;24.14;58.14;100901.16;3597259;39;20047;-63
2022/08/04 02:25:28;;;;;;;9.05;2.75;;;;;;;24.07;57.93;100905.63;3591274;39;20064;-62
2022/08/04 02:28:04;;;;;;;8.95;2.88;;;;;;;24.03;58.66;100901.53;3594810;39;20051;-62
2022/08/04 02:30:45;;;;;;;7.28;2.33;;;;;;;24.03;58.67;100907.03;3593769;39;20050;-62
2022/08/04 02:33:22;;;;;;;7.93;2.75;;;;;;;23.97;59.13;100896.78;3595715;39;20055;-62
2022/08/04 02:35:59;;;;;;;10.43;2.63;;;;;;;23.91;59.18;100894.75;3589604;39;20052;-63
2022/08/04 02:38:54;;;;;;;10.18;2.47;;;;;;;23.84;58.55;100897.38;3597263;39;20174;-63
2022/08/04 02:41:25;;;;;;;9.00;2.65;;;;;;;23.75;59.42;100892.94;3591256;39;20400;-63
2022/08/04 02:43:56;;;;;;;10.50;2.53;;;;;;;23.68;60.02;100898.28;3597189;39;20071;-62
2022/08/04 02:46:23;;;;;;;5.05;2.33;;;;;;;23.61;60.47;100892.66;3594365;39;20076;-62
2022/08/04 02:48:53;;;;;;;4.90;2.42;;;;;;;23.54;59.51;100890.81;3593533;39;20059;-63
2022/08/04 02:51:48;;;;;;;6.38;2.65;;;;;;;23.60;58.70;100884.59;3596168;39;20059;-63
2022/08/04 02:54:18;;;;;;;8.63;2.80;;;;;;;23.58;58.14;100871.03;3597149;39;20130;-62
2022/08/04 02:56:45;;;;;;;7.93;2.42;;;;;;;23.70;57.43;100873.44;3594872;39;20388;-62
2022/08/04 02:59:13;;;;;;;8.00;2.40;;;;;;;23.77;57.39;100877.16;3594219;39;20091;-62
2022/08/04 03:01:40;;;;;;;6.65;2.38;;;;;;;23.82;56.67;100872.84;3598154;39;20539;-64
2022/08/04 03:04:31;;;;;;;8.02;2.90;;;;;;;23.91;56.23;100873.63;3594522;39;20224;-64
2022/08/04 03:07:39;;;;;;;9.82;2.40;;;;;;;23.94;56.71;100864.19;3591445;39;20051;-64
2022/08/04 03:10:51;;;;;;;5.35;2.47;;;;;;;23.96;56.34;100867.63;3590634;39;20055;-61
2022/08/04 03:13:45;;;;;;;10.88;2.50;;;;;;;23.92;56.36;100860.78;3592996;39;20972;-61
2022/08/04 03:16:47;;;;;;;8.43;2.60;;;;;;;23.95;56.25;100865.91;3592403;39;20369;-62
2022/08/04 03:19:36;;;;;;;8.93;2.63;;;;;;;23.94;56.22;100866.94;3595645;39;20055;-62
2022/08/04 03:22:16;;;;;;;6.32;2.13;;;;;;;23.94;56.33;100880.66;3594671;39;20411;-62
2022/08/04 03:25:38;;;;;;;8.25;2.58;;;;;;;23.85;56.89;100894.47;3595036;39;20059;-62
2022/08/04 03:28:39;;;;;;;8.93;2.75;;;;;;;23.77;57.21;100897.22;3594640;39;20058;-61
2022/08/04 03:31:44;;;;;;;9.88;2.60;;;;;;;23.69;57.70;100904.63;3591715;39;20589;-62
2022/08/04 03:34:53;;;;;;;10.68;3.15;;;;;;;23.63;57.95;100884.25;3592425;39;20051;-62
2022/08/04 03:37:57;;;;;;;8.82;2.42;;;;;;;23.50;58.60;100884.81;3598726;39;20048;-62
2022/08/04 03:41:15;;;;;;;8.68;2.88;;;;;;;23.45;59.17;100883.63;3595617;39;20401;-62
2022/08/04 03:44:05;;;;;;;6.22;3.08;;;;;;;23.37;58.89;100879.91;3596956;39;20059;-62
2022/08/04 03:46:52;;;;;;;5.88;2.20;;;;;;;23.33;59.58;100889.50;3592593;39;20048;-61
2022/08/04 03:50:03;;;;;;;7.05;2.50;;;;;;;23.26;59.60;100888.50;3595735;39;20395;-61
2022/08/04 03:55:43;;;;;;;9.02;2.75;;;;;;;23.07;60.48;100902.59;3594862;39;20385;-61
2022/08/04 03:58:51;;;;;;;7.47;2.53;;;;;;;23.02;60.75;100907.75;3591004;39;20306;-61
2022/08/04 04:01:58;;;;;;;7.03;2.72;;;;;;;22.28;61.34;100811.88;3593603;39;20105;-61
2022/08/04 04:05:02;;;;;;;8.02;2.97;;;;;;;22.85;61.59;100912.38;3592576;39;20048;-61
2022/08/04 04:08:21;;;;;;;12.07;3.28;;;;;;;22.79;62.04;100916.66;3597057;39;20398;-63
2022/08/04 04:10:59;;;;;;;6.57;3.13;;;;;;;22.75;62.09;100914.44;3549811;40;20400;-61
2022/08/04 04:13:37;;;;;;;8.98;2.85;;;;;;;22.75;61.88;100920.78;3549220;40;20584;-61
2022/08/04 04:16:35;;;;;;;6.82;3.20;;;;;;;22.73;61.79;100920.06;3576624;39;20370;-62
2022/08/04 04:19:24;;;;;;;11.10;3.20;;;;;;;22.70;62.22;100920.41;3594354;39;20127;-64
2022/08/04 04:22:06;;;;;;;5.88;3.17;;;;;;;22.65;62.72;100911.88;3592014;39;20282;-64
2022/08/04 04:24:59;;;;;;;6.38;3.03;;;;;;;22.60;63.44;100919.75;3593067;39;20458;-62
2022/08/04 04:27:58;;;;;;;6.53;2.58;;;;;;;22.57;63.40;100911.84;3594341;39;20371;-62
2022/08/04 04:31:10;;;;;;;8.25;3.42;;;;;;;22.57;63.20;100915.44;3592049;39;20056;-61
2022/08/04 04:34:07;;;;;;;9.60;3.22;;;;;;;22.57;63.23;100920.09;3597104;39;20317;-62
2022/08/04 04:36:57;;;;;;;8.82;3.58;;;;;;;22.58;62.98;100916.31;3589308;39;20058;-62
2022/08/04 04:39:50;;;;;;;14.82;8.40;;;;;;;22.62;63.11;100917.69;3594211;39;20405;-63
2022/08/04 04:42:39;;;;;;;12.10;6.43;;;;;;;22.64;63.49;100916.47;3593200;39;20631;-62
2022/08/04 04:45:23;;;;;;;10.45;4.18;;;;;;;22.62;63.78;100909.47;3592280;39;20056;-63
2022/08/04 04:48:08;;;;;;;5.38;3.10;;;;;;;22.64;63.68;100912.88;3593930;39;20071;-62
2022/08/04 04:50:59;;;;;;;8.30;2.95;;;;;;;22.65;64.44;100918.22;3596367;39;20065;-63
2022/08/04 04:53:52;;;;;;;7.30;3.05;;;;;;;22.66;64.13;100914.44;3595328;39;20374;-62
2022/08/04 04:56:36;;;;;;;11.60;3.58;;;;;;;22.73;63.83;100917.34;3595860;39;20047;-62
2022/08/04 04:59:10;;;;;;;7.72;3.10;;;;;;;22.52;64.15;100873.16;3597903;39;20058;-63
2022/08/04 05:02:23;;;;;;;10.68;3.75;;;;;;;22.83;63.82;100925.38;3590638;39;20091;-62
2022/08/04 05:05:20;;;;;;;11.70;3.70;;;;;;;22.92;62.77;100936.16;3594685;39;20056;-63
2022/08/04 05:08:01;;;;;;;9.45;3.22;;;;;;;22.97;63.48;100934.84;3597972;39;20394;-62
2022/08/04 05:11:03;;;;;;;8.65;3.80;;;;;;;23.05;62.83;100930.19;3595689;39;20211;-62
2022/08/04 05:13:45;;;;;;;6.60;3.83;;;;;;;23.09;62.63;100930.69;3596267;39;20064;-62
2022/08/04 05:16:29;;;;;;;6.55;4.10;;;;;;;23.09;63.45;100916.97;3594907;39;20059;-63
2022/08/04 05:19:23;;;;;;;;;;;;;;;23.07;63.95;100924.53;3593884;39;20067;-62
2022/08/04 05:22:06;;;;;;;10.30;3.90;;;;;;;23.12;63.50;100925.75;3595632;39;20278;-63
2022/08/04 05:24:43;;;;;;;10.82;4.53;;;;;;;23.15;63.43;100925.38;3596291;39;20058;-63
2022/08/04 05:27:27;;;;;;;8.70;3.58;;;;;;;23.26;63.51;100928.78;3593273;39;20128;-63
2022/08/04 05:30:03;;;;;;;8.68;3.90;;;;;;;23.32;63.16;100923.44;3596987;39;20059;-63
2022/08/04 05:32:41;;;;;;;9.40;4.10;;;;;;;23.30;63.67;100917.28;3586379;39;20091;-62
2022/08/04 05:35:15;;;;;;;12.52;4.03;;;;;;;23.35;64.33;100914.03;3593311;39;20374;-63
2022/08/04 05:37:47;;;;;;;9.80;4.00;;;;;;;23.43;64.39;100915.88;3593866;39;20124;-62
2022/08/04 05:40:17;;;;;;;11.40;4.25;;;;;;;23.51;63.91;100910.38;3595920;39;20039;-63
2022/08/04 05:42:44;;;;;;;10.80;3.80;;;;;;;23.60;63.99;100912.03;3595394;39;20110;-63
2022/08/04 05:45:12;;;;;;;10.15;4.22;;;;;;;23.67;65.29;100904.81;3595977;39;20055;-63
2022/08/04 05:47:38;;;;;;;18.33;4.80;;;;;;;23.71;64.83;100903.44;3597325;39;20044;-62
2022/08/04 05:50:07;;;;;;;13.02;4.32;;;;;;;23.66;64.06;100878.41;3597842;39;20054;-63
2022/08/04 05:52:37;;;;;;;19.17;4.57;;;;;;;23.88;64.56;100908.84;3593556;39;20094;-62
2022/08/04 05:55:06;;;;;;;14.07;4.65;;;;;;;23.96;62.84;100906.91;3596631;39;20264;-63
2022/08/04 05:57:34;;;;;;;12.68;4.65;;;;;;;24.02;62.75;100906.19;3591542;39;20059;-63
2022/08/04 06:00:05;;;;;;;12.25;4.80;;;;;;;24.09;61.29;100909.91;3595254;39;20475;-63
2022/08/04 06:02:34;;;;;;;13.38;4.70;;;;;;;24.18;61.80;100918.97;3597858;39;20068;-63
2022/08/04 06:05:01;;;;;;;13.68;5.22;;;;;;;24.29;60.90;100913.06;3594321;39;20059;-63
2022/08/04 06:07:27;;;;;;;18.23;5.45;;;;;;;24.38;60.77;100926.72;3600805;39;20059;-63
2022/08/04 06:09:54;;;;;;;11.10;5.53;;;;;;;24.47;60.15;100914.69;3596512;39;20099;-62
2022/08/04 06:12:36;;;;;;;14.18;4.82;;;;;;;24.55;60.17;100911.88;3597955;39;20051;-63
2022/08/04 06:15:06;;;;;;;14.10;5.43;;;;;;;24.58;60.17;100919.75;3597229;39;20055;-63
2022/08/04 06:17:40;;;;;;;10.85;4.90;;;;;;;24.61;60.04;100921.25;3597507;39;20353;-62
2022/08/04 06:20:10;;;;;;;13.27;5.35;;;;;;;24.57;61.08;100912.53;3584564;40;20460;-63
2022/08/04 06:22:41;;;;;;;14.43;5.97;;;;;;;24.61;60.78;100919.38;3598152;39;20051;-62
2022/08/04 06:25:14;;;;;;;17.45;6.22;;;;;;;24.66;61.32;100927.06;3594571;39;20108;-63
2022/08/04 06:27:42;;;;;;;13.32;6.35;;;;;;;24.07;60.66;100825.97;3598325;39;20048;-62
2022/08/04 06:30:13;;;;;;;11.48;6.32;;;;;;;24.75;60.08;100935.06;3593250;39;20051;-63
2022/08/04 06:32:47;;;;;;;15.52;7.25;;;;;;;24.85;59.59;100923.78;3596165;39;20337;-63
2022/08/04 06:35:18;;;;;;;16.52;7.55;;;;;;;24.93;58.25;100922.88;3589560;39;20044;-63
2022/08/04 06:37:46;;;;;;;13.70;7.03;;;;;;;24.99;58.11;100930.38;3594617;39;20110;-62
2022/08/04 06:40:16;;;;;;;15.60;7.05;;;;;;;25.10;58.02;100935.41;3596646;39;20140;-63
2022/08/04 06:42:44;;;;;;;14.75;6.80;;;;;;;25.07;57.84;100897.28;3595077;39;20283;-62
2022/08/04 06:45:14;;;;;;;15.20;6.95;;;;;;;25.53;58.05;100932.94;3594650;39;20291;-63
2022/08/04 06:47:42;;;;;;;15.68;7.25;;;;;;;25.61;56.28;100908.03;3596821;39;20055;-63
2022/08/04 06:50:11;;;;;;;14.98;7.60;;;;;;;26.02;55.09;100937.84;3594574;39;20071;-62
2022/08/04 06:52:38;;;;;;;9.85;6.22;;;;;;;26.21;54.13;100941.88;3583838;39;20377;-63
2022/08/04 06:55:07;;;;;;;16.40;6.93;;;;;;;26.37;54.16;100947.13;3591806;39;20056;-63
2022/08/04 06:57:35;;;;;;;12.68;6.85;;;;;;;26.49;54.09;100949.41;3596362;39;20494;-63
2022/08/04 07:00:13;;;;;;;11.27;6.13;;;;;;;26.52;53.73;100949.88;3599035;39;20051;-63
2022/08/04 07:02:50;;;;;;;12.07;6.57;;;;;;;26.49;54.20;100943.91;3594239;39;20325;-63
2022/08/04 07:05:19;;;;;;;12.43;6.85;;;;;;;26.41;54.66;100947.59;3594994;39;20063;-63
2022/08/04 07:07:46;;;;;;;10.60;7.47;;;;;;;26.34;54.77;100941.16;3594484;39;20110;-63
2022/08/04 07:10:13;;;;;;;15.57;7.50;;;;;;;26.32;55.78;100943.25;3593331;39;20121;-63
2022/08/04 07:12:40;;;;;;;13.05;7.80;;;;;;;26.30;55.76;100939.84;3596612;39;20058;-63
2022/08/04 07:15:08;;;;;;;16.15;7.60;;;;;;;26.33;56.91;100944.97;3594159;39;20058;-63
2022/08/04 07:17:38;;;;;;;8.00;7.10;;;;;;;26.36;56.81;100944.59;3594503;39;20093;-63
2022/08/04 07:20:06;;;;;;;13.18;7.50;;;;;;;26.25;56.10;100934.06;3596687;39;20121;-64
2022/08/04 07:22:33;;;;;;;11.75;7.78;;;;;;;26.23;56.15;100909.47;3595046;39;20044;-63
2022/08/04 07:24:59;;;;;;;14.68;7.30;;;;;;;26.61;55.93;100948.69;3593893;39;20084;-63
2022/08/04 07:27:26;;;;;;;13.40;7.35;;;;;;;26.68;55.32;100954.28;3597432;39;20102;-63
2022/08/04 07:29:52;;;;;;;9.90;7.10;;;;;;;26.78;55.79;100959.44;3593102;39;20275;-63
2022/08/04 07:32:24;;;;;;;13.98;7.40;;;;;;;26.94;54.67;100964.69;3592373;39;20366;-63
2022/08/04 07:34:51;;;;;;;11.45;7.18;;;;;;;27.08;54.52;100966.53;3587460;39;20047;-63
2022/08/04 07:37:18;;;;;;;10.75;6.80;;;;;;;27.21;53.98;100965.81;3593852;39;20047;-63
2022/08/04 07:39:44;;;;;;;10.70;6.65;;;;;;;27.44;52.54;100961.94;3594142;39;20125;-63
2022/08/04 07:42:11;;;;;;;12.45;6.57;;;;;;;27.64;52.85;100965.66;3594406;39;20656;-63
2022/08/04 07:44:38;;;;;;;10.30;6.60;;;;;;;27.71;52.07;100960.16;3590830;39;20052;-63
2022/08/04 07:47:07;;;;;;;10.90;5.95;;;;;;;27.71;52.21;100943.59;3595928;39;20354;-63
2022/08/04 07:49:34;;;;;;;10.23;6.15;;;;;;;27.62;52.79;100915.28;3592132;39;20061;-63
2022/08/04 07:52:01;;;;;;;7.72;5.60;;;;;;;28.04;52.59;100962.25;3589751;39;20360;-63
2022/08/04 07:54:28;;;;;;;10.50;6.57;;;;;;;28.24;51.25;100954.91;3597297;39;20053;-63
2022/08/04 07:56:54;;;;;;;12.15;5.65;;;;;;;28.35;51.09;100957.03;3582814;40;20043;-63
2022/08/04 07:59:20;;;;;;;10.40;5.43;;;;;;;28.37;50.84;100943.88;3595344;39;20066;-63
2022/08/04 08:01:47;;;;;;;10.18;5.20;;;;;;;28.64;51.05;100964.19;3594111;39;20051;-63
2022/08/04 08:04:14;;;;;;;13.80;5.55;;;;;;;28.80;50.42;100962.91;3592359;39;20105;-63
2022/08/04 08:06:41;;;;;;;7.30;5.20;;;;;;;28.99;49.48;100976.94;3593920;39;20055;-63
2022/08/04 08:09:17;;;;;;;9.45;5.50;;;;;;;29.07;50.40;100976.78;3593791;39;20052;-63
2022/08/04 08:11:46;;;;;;;7.75;5.30;;;;;;;29.19;49.55;100986.16;3594200;39;20089;-64
2022/08/04 08:14:13;;;;;;;10.35;5.72;;;;;;;29.26;49.78;100984.22;3594193;39;20063;-63
2022/08/04 08:16:38;;;;;;;11.80;5.57;;;;;;;29.41;48.97;100984.00;3597741;39;20055;-65
2022/08/04 08:19:04;;;;;;;9.18;5.10;;;;;;;29.51;48.30;100978.03;3597774;39;20479;-64
2022/08/04 08:21:30;;;;;;;8.18;5.43;;;;;;;29.70;49.82;100979.06;3591220;39;20048;-63
2022/08/04 08:23:57;;;;;;;10.65;4.85;;;;;;;29.93;48.01;100982.19;3593788;39;20354;-63
2022/08/04 08:26:23;;;;;;;9.18;4.55;;;;;;;30.10;46.44;100982.56;3593912;39;20052;-63
2022/08/04 08:28:49;;;;;;;6.38;3.95;;;;;;;30.24;47.28;100988.94;3594961;39;20069;-63
2022/08/04 08:31:14;;;;;;;6.72;4.20;;;;;;;30.47;46.93;100989.22;3593611;39;20428;-63
2022/08/04 08:33:41;;;;;;;6.75;3.85;;;;;;;30.50;45.67;100994.31;3593532;39;20454;-63
2022/08/04 08:36:27;;;;;;;8.88;3.78;;;;;;;30.40;44.62;100990.34;3587686;39;20117;-63
2022/08/04 08:39:27;;;;;;;9.45;3.17;;;;;;;30.22;46.09;101008.53;3587118;39;20345;-63
2022/08/04 08:42:36;;;;;;;4.85;2.90;;;;;;;30.27;45.20;101014.28;3595305;39;20067;-63
2022/08/04 08:45:52;;;;;;;8.70;3.30;;;;;;;30.15;44.78;101006.84;3591637;39;20043;-63
2022/08/04 08:48:53;;;;;;;10.00;2.95;;;;;;;30.19;47.21;101008.97;3582034;39;20519;-63
2022/08/04 08:51:32;;;;;;;11.25;2.70;;;;;;;30.38;44.43;101006.34;3591774;39;20414;-63
2022/08/04 08:54:54;;;;;;;7.30;2.50;;;;;;;30.32;43.63;101018.31;3594774;39;20051;-63
2022/08/04 08:58:06;;;;;;;7.20;2.28;;;;;;;30.56;42.82;101023.09;3595117;39;20364;-63
2022/08/04 09:00:49;;;;;;;4.30;1.92;;;;;;;30.92;43.39;101018.84;3596189;39;20119;-63
2022/08/04 09:03:55;;;;;;;4.45;2.38;;;;;;;31.02;41.73;101019.22;3597898;39;20305;-63
2022/08/04 09:07:17;;;;;;;6.10;2.60;;;;;;;31.20;41.56;101027.59;3597046;39;20267;-63
2022/08/04 09:10:11;;;;;;;5.22;2.40;;;;;;;31.09;41.62;101036.69;3590233;39;20058;-63
2022/08/04 09:12:54;;;;;;;;;;;;;;;30.96;42.56;101032.06;3594557;39;20088;-63
2022/08/04 09:15:33;;;;;;;8.68;2.65;;;;;;;30.85;42.89;101027.22;3595155;39;19931;-63
2022/08/04 09:18:20;;;;;;;5.00;2.00;;;;;;;30.72;43.06;101028.13;3595891;39;20063;-63
2022/08/04 09:21:12;;;;;;;6.25;2.30;;;;;;;30.59;42.18;101028.22;3594910;39;20095;-63
2022/08/04 09:24:14;;;;;;;8.52;2.72;;;;;;;30.56;43.15;101025.88;3594536;39;20059;-63
2022/08/04 09:27:08;;;;;;;8.77;2.40;;;;;;;30.52;42.41;101039.34;3575291;39;20245;-63
2022/08/04 09:30:04;;;;;;;3.45;2.10;;;;;;;30.50;42.09;101040.66;3593861;39;20652;-63
2022/08/04 09:33:04;;;;;;;7.40;1.75;;;;;;;30.38;41.81;101028.53;3594301;39;20060;-63
2022/08/04 09:35:52;;;;;;;6.63;1.70;;;;;;;30.18;42.35;101021.13;3598968;39;20048;-63
2022/08/04 09:38:48;;;;;;;6.93;2.00;;;;;;;30.07;42.87;101047.63;3598744;39;20066;-63
2022/08/04 09:42:00;;;;;;;7.80;2.42;;;;;;;29.78;44.29;101034.25;3590314;39;20062;-63
2022/08/04 09:45:03;;;;;;;3.80;2.03;;;;;;;29.80;43.86;101060.69;3555058;39;20056;-63
2022/08/04 09:47:52;;;;;;;7.32;2.20;;;;;;;29.65;42.49;101067.53;3594024;39;20056;-63
2022/08/04 09:50:37;;;;;;;5.68;1.85;;;;;;;29.51;43.81;101067.50;3583810;39;20047;-64
2022/08/04 09:53:49;;;;;;;7.00;1.90;;;;;;;29.47;43.67;101065.41;3594311;39;20298;-63
2022/08/04 09:56:38;;;;;;;5.53;1.85;;;;;;;29.35;43.34;101077.09;3594715;39;20087;-63
2022/08/04 09:59:50;;;;;;;7.82;1.98;;;;;;;29.18;44.34;101084.13;3592780;39;20063;-63
2022/08/04 10:02:23;;;;;;;4.63;2.03;;;;;;;29.08;44.55;101084.56;3571264;39;20110;-63
2022/08/04 10:04:55;;;;;;;9.80;2.58;;;;;;;28.91;44.81;101084.03;3599547;39;20055;-64
2022/08/04 10:07:44;;;;;;;8.20;2.60;;;;;;;28.77;45.56;101081.47;3594181;39;20051;-63
2022/08/04 10:10:28;;;;;;;6.70;2.22;;;;;;;28.54;46.53;101081.78;3596224;39;20276;-64
2022/08/04 10:12:54;;;;;;;4.15;2.40;;;;;;;28.31;48.31;101080.19;3593137;39;20087;-63
2022/08/04 10:15:32;;;;;;;5.93;2.28;;;;;;;28.16;48.30;101093.28;3593945;39;20047;-64
2022/08/04 10:18:54;;;;;;;6.35;2.38;;;;;;;27.98;48.53;101132.53;3594812;39;20638;-63
2022/08/04 10:22:03;;;;;;;8.05;2.25;;;;;;;27.73;51.09;101173.53;3595527;39;20124;-64
2022/08/04 10:24:56;;;;;;;8.52;2.47;;;;;;;27.46;52.01;101173.25;3596931;39;20093;-63
2022/08/04 10:27:39;;;;;;;7.50;2.03;;;;;;;27.23;55.47;101162.41;3593570;39;20352;-63
2022/08/04 10:30:12;;;;;;;8.63;2.60;;;;;;;26.88;58.25;101153.06;3595221;39;20324;-63
2022/08/04 10:33:04;;;;;;;4.47;2.22;;;;;;;26.48;59.38;101158.06;3591737;39;20125;-63
2022/08/04 10:35:48;;;;;;;7.32;2.30;;;;;;;26.20;62.34;101145.97;3595490;39;20047;-63
2022/08/04 10:38:49;;;;;;;8.38;2.33;;;;;;;25.91;64.15;101123.75;3596360;39;20091;-63
2022/08/04 10:42:00;;;;;;;6.45;2.75;;;;;;;25.69;64.88;101097.94;3592972;39;20388;-61
2022/08/04 10:45:07;;;;;;;6.07;2.80;;;;;;;25.56;67.01;101080.34;3594251;39;20047;-60
2022/08/04 10:47:44;;;;;;;7.50;2.78;;;;;;;25.41;68.36;101061.91;3597630;39;20067;-60
2022/08/04 10:50:12;;;;;;;11.38;3.17;;;;;;;25.37;68.92;101070.72;3593257;39;20060;-60
2022/08/04 10:53:19;;;;;;;8.25;3.47;;;;;;;25.41;70.76;101077.56;3597295;39;20063;-60
2022/08/04 10:56:09;;;;;;;16.17;4.10;;;;;;;25.90;71.98;101075.19;3572860;39;20059;-60
2022/08/04 10:59:02;;;;;;;8.77;2.95;;;;;;;26.62;68.34;101065.38;3595227;39;20055;-60
2022/08/04 11:01:41;;;;;;;10.10;3.40;;;;;;;26.89;65.95;101085.81;3595515;39;20112;-60
2022/08/04 11:04:41;;;;;;;8.05;3.10;;;;;;;26.87;65.35;101107.25;3594660;39;20168;-60
2022/08/04 11:07:10;;;;;;;8.23;3.28;;;;;;;26.77;65.43;101114.97;3595453;39;20115;-60
2022/08/04 11:09:39;;;;;;;10.70;3.72;;;;;;;26.62;65.01;101103.97;3594392;39;20372;-60
2022/08/04 11:12:14;;;;;;;7.13;3.30;;;;;;;26.43;65.56;101086.09;3594342;39;20039;-60
2022/08/04 11:15:14;;;;;;;6.47;3.40;;;;;;;26.27;66.34;101089.91;3591406;39;20047;-59
2022/08/04 11:17:55;;;;;;;8.90;3.90;;;;;;;26.05;65.48;101086.22;3598019;39;20051;-60
2022/08/04 11:20:42;;;;;;;8.38;3.95;;;;;;;25.77;65.16;101076.88;3592605;39;20055;-60
2022/08/04 11:23:14;;;;;;;8.88;4.10;;;;;;;25.74;66.04;101078.09;3595949;39;20054;-60
2022/08/04 11:25:51;;;;;;;7.45;3.95;;;;;;;25.77;66.96;101076.88;3592854;39;20063;-60
2022/08/04 11:28:59;;;;;;;9.40;3.97;;;;;;;25.24;67.40;100953.00;3593737;39;20051;-60
2022/08/04 11:31:34;;;;;;;9.55;4.15;;;;;;;26.20;67.07;101082.59;3593728;39;20389;-60
2022/08/04 11:34:18;;;;;;;7.13;4.03;;;;;;;26.69;63.85;101087.50;3591884;39;20064;-60
2022/08/04 11:37:08;;;;;;;8.25;3.00;;;;;;;27.21;62.18;101090.00;3595054;39;20051;-60
2022/08/04 11:39:51;;;;;;;8.55;3.67;;;;;;;27.89;59.86;101095.03;3593298;39;20061;-60
2022/08/04 11:42:25;;;;;;;8.05;3.55;;;;;;;28.45;57.89;101095.81;3593692;39;20063;-60
2022/08/04 11:45:05;;;;;;;8.45;3.40;;;;;;;28.83;56.29;101099.97;3593453;39;20059;-60
2022/08/04 11:47:38;;;;;;;4.55;2.95;;;;;;;29.02;53.60;101101.13;3595200;39;20047;-60
2022/08/04 11:50:32;;;;;;;5.00;3.00;;;;;;;29.59;50.81;101094.13;3594786;39;20341;-60
2022/08/04 11:53:01;;;;;;;6.80;2.50;;;;;;;29.58;52.90;101084.13;3593294;39;20054;-61
2022/08/04 11:55:30;;;;;;;7.20;2.83;;;;;;;29.46;51.16;101089.44;3593351;39;20422;-60
2022/08/04 11:57:56;;;;;;;4.65;2.38;;;;;;;29.30;51.13;101084.34;3592250;39;20571;-60
2022/08/04 12:00:28;;;;;;;4.75;2.60;;;;;;;29.23;50.42;101092.66;3592068;39;20269;-61
2022/08/04 12:03:25;;;;;;;6.83;2.70;;;;;;;28.94;51.41;100988.66;3595131;39;20073;-61
2022/08/04 12:06:08;;;;;;;7.75;2.75;;;;;;;30.02;49.75;101096.47;3593961;39;20378;-61
2022/08/04 12:09:21;;;;;;;5.50;2.65;;;;;;;30.41;48.80;101103.00;3599247;39;20052;-62
2022/08/04 12:12:19;;;;;;;7.00;2.88;;;;;;;30.37;48.99;101102.59;3597009;39;20419;-62
2022/08/04 12:15:15;;;;;;;5.57;3.03;;;;;;;30.22;48.37;101104.75;3594265;39;20077;-63
2022/08/04 12:18:21;;;;;;;5.63;2.35;;;;;;;30.06;48.32;101103.28;3593910;39;20476;-64
2022/08/04 12:20:59;;;;;;;4.90;2.80;;;;;;;29.84;49.22;101117.41;3578615;39;20094;-64
2022/08/04 12:23:34;;;;;;;5.45;2.40;;;;;;;29.57;47.91;101122.06;3595828;39;20747;-65
2022/08/04 12:26:12;;;;;;;4.72;2.65;;;;;;;29.37;50.62;101129.53;3594455;39;20576;-65
2022/08/04 12:28:43;;;;;;;5.10;2.80;;;;;;;29.23;49.97;101133.34;3595606;39;20063;-65
2022/08/04 12:31:28;;;;;;;6.13;2.70;;;;;;;29.07;50.52;101129.03;3591709;39;20398;-65
2022/08/04 12:34:07;;;;;;;5.20;3.20;;;;;;;28.85;50.47;101126.38;3593317;39;20055;-64
2022/08/04 12:36:46;;;;;;;3.83;2.67;;;;;;;28.59;50.30;101135.44;3592530;39;20090;-64
2022/08/04 12:39:20;;;;;;;5.00;2.50;;;;;;;28.43;51.04;101141.34;3596266;39;20039;-64